PDORG VNLK-VNRT
Flight info
| Callsign | PDORG |
|---|---|
| Flight time | 0h 24m |
| Altitude | 14500 |
| Route | DCT |
| Aircraft | TBM9/L-SDFGRWY/S |
Departure
| Time | 2026-01-11 03:57 |
|---|---|
| Airport | Tenzing-Hillary Airport (VNLK) |
Arrival
| Time | 2026-01-11 04:21 |
|---|---|
| Airport | Rumjatar Airport (VNRT) |
| Time | Latitude | Longitude | Altitude | Speed | Heading |
|---|---|---|---|---|---|
| 2026-01-11 03:45 | 27.68733 | 86.73170 | 9469 ft | 0 kts | 248° |
| 2026-01-11 03:54 | 27.68787 | 86.73174 | 9467 ft | 9 kts | 62° |
| 2026-01-11 03:54 | 27.68795 | 86.73172 | 9467 ft | 0 kts | 245° |
| 2026-01-11 03:55 | 27.68333 | 86.72291 | 9162 ft | 139 kts | 240° |
| 2026-01-11 03:55 | 27.66921 | 86.70791 | 9823 ft | 161 kts | 200° |
| 2026-01-11 03:56 | 27.63454 | 86.70632 | 10414 ft | 201 kts | 156° |
| 2026-01-11 03:57 | 27.60940 | 86.70634 | 10260 ft | 199 kts | 232° |
| 2026-01-11 03:57 | 27.61305 | 86.68061 | 10013 ft | 199 kts | 341° |
| 2026-01-11 03:58 | 27.63876 | 86.68837 | 9511 ft | 185 kts | 24° |
| 2026-01-11 03:58 | 27.65055 | 86.69384 | 9484 ft | 179 kts | 18° |
| 2026-01-11 03:58 | 27.66992 | 86.70345 | 9600 ft | 135 kts | 46° |
| 2026-01-11 03:59 | 27.68182 | 86.71972 | 9135 ft | 126 kts | 58° |
| 2026-01-11 03:59 | 27.68801 | 86.73183 | 9470 ft | 0 kts | 55° |
| 2026-01-11 04:00 | 27.68809 | 86.73184 | 9469 ft | 0 kts | 320° |
| 2026-01-11 04:00 | 27.68806 | 86.73185 | 9469 ft | 4 kts | 271° |
| 2026-01-11 04:01 | 27.68800 | 86.73176 | 9469 ft | 0 kts | 216° |
| 2026-01-11 04:02 | 27.68777 | 86.73137 | 9467 ft | 23 kts | 242° |
| 2026-01-11 04:03 | 27.67171 | 86.70871 | 9457 ft | 171 kts | 222° |
| 2026-01-11 04:04 | 27.64875 | 86.69832 | 9464 ft | 213 kts | 187° |
| 2026-01-11 04:04 | 27.62047 | 86.69754 | 9950 ft | 194 kts | 177° |
| 2026-01-11 04:05 | 27.59580 | 86.68936 | 9816 ft | 198 kts | 248° |
| 2026-01-11 04:05 | 27.60740 | 86.67010 | 10056 ft | 189 kts | 19° |
| 2026-01-11 04:06 | 27.63074 | 86.68404 | 9773 ft | 195 kts | 22° |
| 2026-01-11 04:06 | 27.63844 | 86.69503 | 9858 ft | 207 kts | 90° |
| 2026-01-11 04:06 | 27.61587 | 86.70290 | 9442 ft | 235 kts | 214° |
| 2026-01-11 04:07 | 27.58796 | 86.68304 | 9194 ft | 230 kts | 206° |
| 2026-01-11 04:08 | 27.54368 | 86.70043 | 7701 ft | 233 kts | 144° |
| 2026-01-11 04:08 | 27.51797 | 86.70587 | 6949 ft | 188 kts | 202° |
| 2026-01-11 04:09 | 27.49921 | 86.69179 | 6618 ft | 160 kts | 235° |
| 2026-01-11 04:09 | 27.48966 | 86.67137 | 6794 ft | 140 kts | 244° |
| 2026-01-11 04:09 | 27.48553 | 86.66204 | 7144 ft | 130 kts | 246° |
| 2026-01-11 04:10 | 27.47402 | 86.63375 | 8632 ft | 136 kts | 262° |
| 2026-01-11 04:10 | 27.47456 | 86.62329 | 9168 ft | 143 kts | 302° |
| 2026-01-11 04:11 | 27.48027 | 86.60470 | 10151 ft | 141 kts | 271° |
| 2026-01-11 04:12 | 27.45385 | 86.57680 | 9868 ft | 196 kts | 199° |
| 2026-01-11 04:12 | 27.42888 | 86.58720 | 9648 ft | 204 kts | 149° |
| 2026-01-11 04:13 | 27.40386 | 86.60134 | 9667 ft | 200 kts | 163° |
| 2026-01-11 04:13 | 27.37813 | 86.60430 | 9426 ft | 190 kts | 214° |
| 2026-01-11 04:14 | 27.35884 | 86.58309 | 8576 ft | 201 kts | 242° |
| 2026-01-11 04:14 | 27.35260 | 86.56954 | 8199 ft | 188 kts | 248° |
| 2026-01-11 04:14 | 27.33206 | 86.55485 | 6855 ft | 198 kts | 176° |
| 2026-01-11 04:15 | 27.30632 | 86.55884 | 5864 ft | 143 kts | 174° |
| 2026-01-11 04:15 | 27.29144 | 86.56031 | 5648 ft | 94 kts | 197° |
| 2026-01-11 04:16 | 27.29358 | 86.54385 | 5888 ft | 106 kts | 339° |
| 2026-01-11 04:17 | 27.30671 | 86.53541 | 5840 ft | 115 kts | 316° |
| 2026-01-11 04:17 | 27.31746 | 86.53394 | 5634 ft | 121 kts | 97° |
| 2026-01-11 04:18 | 27.31436 | 86.54289 | 5189 ft | 129 kts | 100° |
| 2026-01-11 04:18 | 27.30260 | 86.54888 | 4901 ft | 108 kts | 203° |
| 2026-01-11 04:19 | 27.28947 | 86.54179 | 4870 ft | 99 kts | 207° |
| 2026-01-11 04:19 | 27.27714 | 86.53649 | 4924 ft | 104 kts | 160° |
| 2026-01-11 04:20 | 27.27927 | 86.55030 | 4733 ft | 114 kts | 24° |
| 2026-01-11 04:20 | 27.30208 | 86.55120 | 4489 ft | 94 kts | 352° |
| 2026-01-11 04:21 | 27.30471 | 86.55081 | 4552 ft | 22 kts | 172° |
| 2026-01-11 04:21 | 27.30332 | 86.55100 | 4518 ft | 10 kts | 245° |
| 2026-01-11 04:22 | 27.30336 | 86.55051 | 4519 ft | 0 kts | 269° |